sensor_id;sensor_type;location;lat;lon;timestamp;temperature;humidity
36548;DHT22;22551;52.206;4.856;2023-03-20T00:04:37;8.20;99.90
36548;DHT22;22551;52.206;4.856;2023-03-20T00:09:41;8.30;99.90
36548;DHT22;22551;52.206;4.856;2023-03-20T00:14:43;8.30;99.90
36548;DHT22;22551;52.206;4.856;2023-03-20T00:19:45;8.20;99.90
36548;DHT22;22551;52.206;4.856;2023-03-20T00:24:49;8.20;99.90
36548;DHT22;22551;52.206;4.856;2023-03-20T00:29:52;8.20;99.90
36548;DHT22;22551;52.206;4.856;2023-03-20T00:34:54;8.20;99.90
36548;DHT22;22551;52.206;4.856;2023-03-20T00:39:58;8.20;99.90
36548;DHT22;22551;52.206;4.856;2023-03-20T00:45:00;8.20;99.90
36548;DHT22;22551;52.206;4.856;2023-03-20T00:50:09;8.20;99.90
36548;DHT22;22551;52.206;4.856;2023-03-20T00:55:18;8.10;99.90
36548;DHT22;22551;52.206;4.856;2023-03-20T01:00:33;8.10;99.90
36548;DHT22;22551;52.206;4.856;2023-03-20T01:05:37;8.10;99.90
36548;DHT22;22551;52.206;4.856;2023-03-20T01:10:42;8.00;99.90
36548;DHT22;22551;52.206;4.856;2023-03-20T01:15:45;8.00;99.90
36548;DHT22;22551;52.206;4.856;2023-03-20T01:20:48;8.00;99.90
36548;DHT22;22551;52.206;4.856;2023-03-20T01:25:53;7.90;99.90
36548;DHT22;22551;52.206;4.856;2023-03-20T01:30:56;7.90;99.90
36548;DHT22;22551;52.206;4.856;2023-03-20T01:35:59;7.80;99.90
36548;DHT22;22551;52.206;4.856;2023-03-20T01:41:06;7.80;99.90
36548;DHT22;22551;52.206;4.856;2023-03-20T01:46:16;7.70;99.90
36548;DHT22;22551;52.206;4.856;2023-03-20T01:51:22;7.70;99.90
36548;DHT22;22551;52.206;4.856;2023-03-20T01:56:28;7.60;99.90
36548;DHT22;22551;52.206;4.856;2023-03-20T02:01:32;7.60;99.90
36548;DHT22;22551;52.206;4.856;2023-03-20T02:06:37;7.60;99.90
36548;DHT22;22551;52.206;4.856;2023-03-20T02:11:42;7.60;99.90
36548;DHT22;22551;52.206;4.856;2023-03-20T02:16:46;7.60;99.90
36548;DHT22;22551;52.206;4.856;2023-03-20T02:22:19;7.50;99.90
36548;DHT22;22551;52.206;4.856;2023-03-20T02:27:32;7.60;99.90
36548;DHT22;22551;52.206;4.856;2023-03-20T02:33:23;7.50;99.90
36548;DHT22;22551;52.206;4.856;2023-03-20T02:38:56;7.50;99.90
36548;DHT22;22551;52.206;4.856;2023-03-20T02:44:21;7.50;99.90
36548;DHT22;22551;52.206;4.856;2023-03-20T02:49:49;7.40;99.90
36548;DHT22;22551;52.206;4.856;2023-03-20T02:55:05;7.40;99.90
36548;DHT22;22551;52.206;4.856;2023-03-20T03:00:19;7.30;99.90
36548;DHT22;22551;52.206;4.856;2023-03-20T03:05:31;7.30;99.90
36548;DHT22;22551;52.206;4.856;2023-03-20T03:10:41;7.20;99.90
36548;DHT22;22551;52.206;4.856;2023-03-20T03:15:47;7.20;99.90
36548;DHT22;22551;52.206;4.856;2023-03-20T03:20:56;7.20;99.90
36548;DHT22;22551;52.206;4.856;2023-03-20T03:26:02;7.20;99.90
36548;DHT22;22551;52.206;4.856;2023-03-20T03:31:10;7.20;99.90
36548;DHT22;22551;52.206;4.856;2023-03-20T03:36:21;7.20;99.90
36548;DHT22;22551;52.206;4.856;2023-03-20T03:41:35;7.20;99.90
36548;DHT22;22551;52.206;4.856;2023-03-20T03:46:46;7.20;99.90
36548;DHT22;22551;52.206;4.856;2023-03-20T03:51:55;7.20;99.90
36548;DHT22;22551;52.206;4.856;2023-03-20T03:57:00;7.10;99.90
36548;DHT22;22551;52.206;4.856;2023-03-20T04:02:04;7.10;99.90
36548;DHT22;22551;52.206;4.856;2023-03-20T04:07:08;7.10;99.90
36548;DHT22;22551;52.206;4.856;2023-03-20T04:12:31;7.10;99.90
36548;DHT22;22551;52.206;4.856;2023-03-20T04:17:37;7.10;99.90
36548;DHT22;22551;52.206;4.856;2023-03-20T04:22:40;7.10;99.90
36548;DHT22;22551;52.206;4.856;2023-03-20T04:27:44;7.10;99.90
36548;DHT22;22551;52.206;4.856;2023-03-20T04:32:46;7.00;99.90
36548;DHT22;22551;52.206;4.856;2023-03-20T04:37:48;7.00;99.90
36548;DHT22;22551;52.206;4.856;2023-03-20T04:42:52;7.00;99.90
36548;DHT22;22551;52.206;4.856;2023-03-20T04:47:54;7.00;99.90
36548;DHT22;22551;52.206;4.856;2023-03-20T04:52:57;7.00;99.90
36548;DHT22;22551;52.206;4.856;2023-03-20T04:58:01;7.00;99.90
36548;DHT22;22551;52.206;4.856;2023-03-20T05:03:03;7.10;99.90
36548;DHT22;22551;52.206;4.856;2023-03-20T05:08:06;7.10;99.90
36548;DHT22;22551;52.206;4.856;2023-03-20T05:13:10;7.00;99.90
36548;DHT22;22551;52.206;4.856;2023-03-20T05:18:12;7.00;99.90
36548;DHT22;22551;52.206;4.856;2023-03-20T05:23:14;7.10;99.90
36548;DHT22;22551;52.206;4.856;2023-03-20T05:28:18;7.10;99.90
36548;DHT22;22551;52.206;4.856;2023-03-20T05:33:21;7.00;99.90
36548;DHT22;22551;52.206;4.856;2023-03-20T05:38:23;7.10;99.90
36548;DHT22;22551;52.206;4.856;2023-03-20T05:43:27;7.10;99.90
36548;DHT22;22551;52.206;4.856;2023-03-20T05:48:29;7.10;99.90
36548;DHT22;22551;52.206;4.856;2023-03-20T05:53:32;7.10;99.90
36548;DHT22;22551;52.206;4.856;2023-03-20T05:58:36;7.10;99.90
36548;DHT22;22551;52.206;4.856;2023-03-20T06:03:38;7.10;99.90
36548;DHT22;22551;52.206;4.856;2023-03-20T06:08:41;7.10;99.90
36548;DHT22;22551;52.206;4.856;2023-03-20T06:13:45;7.10;99.90
36548;DHT22;22551;52.206;4.856;2023-03-20T06:18:47;7.10;99.90
36548;DHT22;22551;52.206;4.856;2023-03-20T06:23:49;7.10;99.90
36548;DHT22;22551;52.206;4.856;2023-03-20T06:28:55;7.20;99.90
36548;DHT22;22551;52.206;4.856;2023-03-20T06:33:57;7.20;99.90
36548;DHT22;22551;52.206;4.856;2023-03-20T06:38:59;7.20;99.90
36548;DHT22;22551;52.206;4.856;2023-03-20T06:44:04;7.20;99.90
36548;DHT22;22551;52.206;4.856;2023-03-20T06:49:07;7.20;99.90
36548;DHT22;22551;52.206;4.856;2023-03-20T06:54:09;7.30;99.90
36548;DHT22;22551;52.206;4.856;2023-03-20T06:59:12;7.30;99.90
36548;DHT22;22551;52.206;4.856;2023-03-20T07:04:15;7.30;99.90
36548;DHT22;22551;52.206;4.856;2023-03-20T07:09:17;7.30;99.90
36548;DHT22;22551;52.206;4.856;2023-03-20T07:14:23;7.40;99.90
36548;DHT22;22551;52.206;4.856;2023-03-20T07:19:25;7.40;99.90
36548;DHT22;22551;52.206;4.856;2023-03-20T07:24:27;7.40;99.90
36548;DHT22;22551;52.206;4.856;2023-03-20T07:29:31;7.50;99.90
36548;DHT22;22551;52.206;4.856;2023-03-20T07:34:33;7.60;99.90
36548;DHT22;22551;52.206;4.856;2023-03-20T07:39:36;7.60;99.90
36548;DHT22;22551;52.206;4.856;2023-03-20T07:44:39;7.60;99.90
36548;DHT22;22551;52.206;4.856;2023-03-20T07:49:41;7.70;99.90
36548;DHT22;22551;52.206;4.856;2023-03-20T07:54:44;7.80;99.90
36548;DHT22;22551;52.206;4.856;2023-03-20T07:59:48;7.80;99.90
36548;DHT22;22551;52.206;4.856;2023-03-20T08:04:50;7.90;99.90
36548;DHT22;22551;52.206;4.856;2023-03-20T08:09:52;7.90;99.90
36548;DHT22;22551;52.206;4.856;2023-03-20T08:14:56;8.00;99.90
36548;DHT22;22551;52.206;4.856;2023-03-20T08:19:59;8.00;99.90
36548;DHT22;22551;52.206;4.856;2023-03-20T08:25:01;8.10;99.90
36548;DHT22;22551;52.206;4.856;2023-03-20T08:30:06;8.10;99.90
36548;DHT22;22551;52.206;4.856;2023-03-20T08:35:09;8.10;99.90
36548;DHT22;22551;52.206;4.856;2023-03-20T08:40:12;8.10;99.90
36548;DHT22;22551;52.206;4.856;2023-03-20T08:45:16;8.10;99.90
36548;DHT22;22551;52.206;4.856;2023-03-20T08:50:19;8.20;99.90
36548;DHT22;22551;52.206;4.856;2023-03-20T08:55:21;8.20;99.90
36548;DHT22;22551;52.206;4.856;2023-03-20T09:00:25;8.30;99.90
36548;DHT22;22551;52.206;4.856;2023-03-20T09:05:27;8.30;99.90
36548;DHT22;22551;52.206;4.856;2023-03-20T09:10:30;8.40;99.90
36548;DHT22;22551;52.206;4.856;2023-03-20T09:15:34;8.40;99.90
36548;DHT22;22551;52.206;4.856;2023-03-20T09:20:37;8.60;99.90
36548;DHT22;22551;52.206;4.856;2023-03-20T09:25:39;8.70;99.90
36548;DHT22;22551;52.206;4.856;2023-03-20T09:30:43;8.80;99.90
36548;DHT22;22551;52.206;4.856;2023-03-20T09:35:45;8.90;99.90
36548;DHT22;22551;52.206;4.856;2023-03-20T09:40:50;9.10;99.90
36548;DHT22;22551;52.206;4.856;2023-03-20T09:46:03;9.20;99.90
36548;DHT22;22551;52.206;4.856;2023-03-20T09:51:20;9.20;99.90
36548;DHT22;22551;52.206;4.856;2023-03-20T09:56:28;9.30;99.90
36548;DHT22;22551;52.206;4.856;2023-03-20T10:01:38;9.40;99.90
36548;DHT22;22551;52.206;4.856;2023-03-20T10:06:47;9.40;99.90
36548;DHT22;22551;52.206;4.856;2023-03-20T10:12:07;9.40;99.90
36548;DHT22;22551;52.206;4.856;2023-03-20T10:17:29;9.20;99.90
36548;DHT22;22551;52.206;4.856;2023-03-20T10:22:46;9.30;99.90
36548;DHT22;22551;52.206;4.856;2023-03-20T10:27:55;9.20;99.90
36548;DHT22;22551;52.206;4.856;2023-03-20T10:33:11;9.20;99.90
36548;DHT22;22551;52.206;4.856;2023-03-20T10:38:30;9.00;99.90
36548;DHT22;22551;52.206;4.856;2023-03-20T10:43:37;9.10;99.90
36548;DHT22;22551;52.206;4.856;2023-03-20T10:48:45;9.20;99.90
36548;DHT22;22551;52.206;4.856;2023-03-20T10:53:53;9.20;99.90
36548;DHT22;22551;52.206;4.856;2023-03-20T10:59:03;9.30;99.90
36548;DHT22;22551;52.206;4.856;2023-03-20T11:04:10;9.40;99.90
36548;DHT22;22551;52.206;4.856;2023-03-20T11:09:18;9.40;99.90
36548;DHT22;22551;52.206;4.856;2023-03-20T11:14:24;9.50;99.90
36548;DHT22;22551;52.206;4.856;2023-03-20T11:19:32;9.60;99.90
36548;DHT22;22551;52.206;4.856;2023-03-20T11:24:42;9.50;99.90
36548;DHT22;22551;52.206;4.856;2023-03-20T11:29:49;9.50;99.90
36548;DHT22;22551;52.206;4.856;2023-03-20T11:35:08;9.30;99.90
36548;DHT22;22551;52.206;4.856;2023-03-20T11:40:15;9.30;99.90
36548;DHT22;22551;52.206;4.856;2023-03-20T11:45:23;9.40;99.90
36548;DHT22;22551;52.206;4.856;2023-03-20T11:50:32;9.30;99.90
36548;DHT22;22551;52.206;4.856;2023-03-20T11:55:40;9.30;99.90
36548;DHT22;22551;52.206;4.856;2023-03-20T12:00:46;9.40;99.90
36548;DHT22;22551;52.206;4.856;2023-03-20T12:06:05;9.40;99.90
36548;DHT22;22551;52.206;4.856;2023-03-20T12:11:23;9.40;99.90
36548;DHT22;22551;52.206;4.856;2023-03-20T12:16:35;9.30;99.90
36548;DHT22;22551;52.206;4.856;2023-03-20T12:21:44;9.40;99.90
36548;DHT22;22551;52.206;4.856;2023-03-20T12:26:54;9.50;99.90
36548;DHT22;22551;52.206;4.856;2023-03-20T12:32:02;9.50;99.90
36548;DHT22;22551;52.206;4.856;2023-03-20T12:37:10;9.50;99.90
36548;DHT22;22551;52.206;4.856;2023-03-20T12:42:21;9.60;99.90
36548;DHT22;22551;52.206;4.856;2023-03-20T12:47:46;9.60;99.90
36548;DHT22;22551;52.206;4.856;2023-03-20T12:53:07;9.60;99.90
36548;DHT22;22551;52.206;4.856;2023-03-20T12:58:22;9.50;99.90
36548;DHT22;22551;52.206;4.856;2023-03-20T13:03:41;9.50;99.90
36548;DHT22;22551;52.206;4.856;2023-03-20T13:09:04;9.50;99.90
36548;DHT22;22551;52.206;4.856;2023-03-20T13:14:26;9.40;99.90
36548;DHT22;22551;52.206;4.856;2023-03-20T13:19:36;9.40;99.90
36548;DHT22;22551;52.206;4.856;2023-03-20T13:24:47;9.40;99.90
36548;DHT22;22551;52.206;4.856;2023-03-20T13:29:55;9.40;99.90
36548;DHT22;22551;52.206;4.856;2023-03-20T13:35:26;9.30;99.90
36548;DHT22;22551;52.206;4.856;2023-03-20T13:40:39;9.50;99.90
36548;DHT22;22551;52.206;4.856;2023-03-20T13:45:43;9.50;99.90
36548;DHT22;22551;52.206;4.856;2023-03-20T13:50:50;9.50;99.90
36548;DHT22;22551;52.206;4.856;2023-03-20T13:56:05;9.50;99.90
36548;DHT22;22551;52.206;4.856;2023-03-20T14:01:15;9.40;99.90
36548;DHT22;22551;52.206;4.856;2023-03-20T14:06:47;9.40;99.90
36548;DHT22;22551;52.206;4.856;2023-03-20T14:11:53;9.40;99.90
36548;DHT22;22551;52.206;4.856;2023-03-20T14:17:17;9.40;99.90
36548;DHT22;22551;52.206;4.856;2023-03-20T14:22:21;9.40;99.90
36548;DHT22;22551;52.206;4.856;2023-03-20T14:27:28;9.40;99.90
36548;DHT22;22551;52.206;4.856;2023-03-20T14:32:33;9.40;99.90
36548;DHT22;22551;52.206;4.856;2023-03-20T14:37:44;9.40;99.90
36548;DHT22;22551;52.206;4.856;2023-03-20T14:43:06;9.50;99.90
36548;DHT22;22551;52.206;4.856;2023-03-20T14:48:26;9.50;99.90
36548;DHT22;22551;52.206;4.856;2023-03-20T14:53:32;9.50;99.90
36548;DHT22;22551;52.206;4.856;2023-03-20T14:58:55;9.50;99.90
36548;DHT22;22551;52.206;4.856;2023-03-20T15:04:01;9.50;99.90
36548;DHT22;22551;52.206;4.856;2023-03-20T15:09:08;9.50;99.90
36548;DHT22;22551;52.206;4.856;2023-03-20T15:14:19;9.50;99.90
36548;DHT22;22551;52.206;4.856;2023-03-20T15:19:22;9.50;99.90
36548;DHT22;22551;52.206;4.856;2023-03-20T15:24:28;9.50;99.90
36548;DHT22;22551;52.206;4.856;2023-03-20T15:29:33;9.60;99.90
36548;DHT22;22551;52.206;4.856;2023-03-20T15:34:35;9.60;99.90
36548;DHT22;22551;52.206;4.856;2023-03-20T15:39:44;9.60;99.90
36548;DHT22;22551;52.206;4.856;2023-03-20T15:44:52;9.60;99.90
36548;DHT22;22551;52.206;4.856;2023-03-20T15:49:57;9.60;99.90
36548;DHT22;22551;52.206;4.856;2023-03-20T15:55:04;9.60;99.90
36548;DHT22;22551;52.206;4.856;2023-03-20T16:00:16;9.60;99.90
36548;DHT22;22551;52.206;4.856;2023-03-20T16:05:24;9.60;99.90
36548;DHT22;22551;52.206;4.856;2023-03-20T16:10:29;9.60;99.90
36548;DHT22;22551;52.206;4.856;2023-03-20T16:15:35;9.60;99.90
36548;DHT22;22551;52.206;4.856;2023-03-20T16:20:43;9.60;99.90
36548;DHT22;22551;52.206;4.856;2023-03-20T16:25:49;9.70;99.90
36548;DHT22;22551;52.206;4.856;2023-03-20T16:30:54;9.80;99.90
36548;DHT22;22551;52.206;4.856;2023-03-20T16:36:04;9.80;99.90
36548;DHT22;22551;52.206;4.856;2023-03-20T16:41:16;9.80;99.90
36548;DHT22;22551;52.206;4.856;2023-03-20T16:46:26;9.80;99.90
36548;DHT22;22551;52.206;4.856;2023-03-20T16:51:29;9.80;99.90
36548;DHT22;22551;52.206;4.856;2023-03-20T16:56:34;9.70;99.90
36548;DHT22;22551;52.206;4.856;2023-03-20T17:01:43;9.70;99.90
36548;DHT22;22551;52.206;4.856;2023-03-20T17:06:48;9.70;99.90
36548;DHT22;22551;52.206;4.856;2023-03-20T17:12:00;9.70;99.90
36548;DHT22;22551;52.206;4.856;2023-03-20T17:17:09;9.70;99.90
36548;DHT22;22551;52.206;4.856;2023-03-20T17:22:14;9.70;99.90
36548;DHT22;22551;52.206;4.856;2023-03-20T17:27:18;9.70;99.90
36548;DHT22;22551;52.206;4.856;2023-03-20T17:32:22;9.70;99.90
36548;DHT22;22551;52.206;4.856;2023-03-20T17:37:26;9.70;99.90
36548;DHT22;22551;52.206;4.856;2023-03-20T17:42:30;9.60;99.90
36548;DHT22;22551;52.206;4.856;2023-03-20T17:47:35;9.60;99.90
36548;DHT22;22551;52.206;4.856;2023-03-20T17:52:40;9.60;99.90
36548;DHT22;22551;52.206;4.856;2023-03-20T17:57:49;9.60;99.90
36548;DHT22;22551;52.206;4.856;2023-03-20T18:03:11;9.50;99.90
36548;DHT22;22551;52.206;4.856;2023-03-20T18:08:20;9.60;99.90
36548;DHT22;22551;52.206;4.856;2023-03-20T18:13:25;9.50;99.90
36548;DHT22;22551;52.206;4.856;2023-03-20T18:18:30;9.50;99.90
36548;DHT22;22551;52.206;4.856;2023-03-20T18:23:33;9.60;99.90
36548;DHT22;22551;52.206;4.856;2023-03-20T18:28:35;9.50;99.90
36548;DHT22;22551;52.206;4.856;2023-03-20T18:33:39;9.50;99.90
36548;DHT22;22551;52.206;4.856;2023-03-20T18:38:48;9.50;99.90
36548;DHT22;22551;52.206;4.856;2023-03-20T18:43:56;9.50;99.90
36548;DHT22;22551;52.206;4.856;2023-03-20T18:49:01;9.50;99.90
36548;DHT22;22551;52.206;4.856;2023-03-20T18:54:09;9.50;99.90
36548;DHT22;22551;52.206;4.856;2023-03-20T18:59:12;9.50;99.90
36548;DHT22;22551;52.206;4.856;2023-03-20T19:04:17;9.50;99.90
36548;DHT22;22551;52.206;4.856;2023-03-20T19:09:23;9.50;99.90
36548;DHT22;22551;52.206;4.856;2023-03-20T19:14:26;9.50;99.90
36548;DHT22;22551;52.206;4.856;2023-03-20T19:19:40;9.50;99.90
36548;DHT22;22551;52.206;4.856;2023-03-20T19:24:43;9.50;99.90
36548;DHT22;22551;52.206;4.856;2023-03-20T19:29:48;9.50;99.90
36548;DHT22;22551;52.206;4.856;2023-03-20T19:34:53;9.50;99.90
36548;DHT22;22551;52.206;4.856;2023-03-20T19:39:57;9.50;99.90
36548;DHT22;22551;52.206;4.856;2023-03-20T19:45:01;9.50;99.90
36548;DHT22;22551;52.206;4.856;2023-03-20T19:50:24;9.50;99.90
36548;DHT22;22551;52.206;4.856;2023-03-20T19:55:34;9.50;99.90
36548;DHT22;22551;52.206;4.856;2023-03-20T20:16:18;9.40;99.90
36548;DHT22;22551;52.206;4.856;2023-03-20T20:21:20;9.50;99.90
36548;DHT22;22551;52.206;4.856;2023-03-20T20:26:23;9.50;99.90
36548;DHT22;22551;52.206;4.856;2023-03-20T20:31:28;9.50;99.90
36548;DHT22;22551;52.206;4.856;2023-03-20T20:36:35;9.50;99.90
36548;DHT22;22551;52.206;4.856;2023-03-20T20:41:37;9.50;99.90
36548;DHT22;22551;52.206;4.856;2023-03-20T20:51:53;9.50;99.90
36548;DHT22;22551;52.206;4.856;2023-03-20T20:56:57;9.50;99.90
36548;DHT22;22551;52.206;4.856;2023-03-20T21:02:03;9.50;99.90
36548;DHT22;22551;52.206;4.856;2023-03-20T21:07:12;9.50;99.90
36548;DHT22;22551;52.206;4.856;2023-03-20T21:12:15;9.50;99.90
36548;DHT22;22551;52.206;4.856;2023-03-20T21:17:18;9.60;99.90
36548;DHT22;22551;52.206;4.856;2023-03-20T21:22:22;9.50;99.90
36548;DHT22;22551;52.206;4.856;2023-03-20T21:27:25;9.50;99.90
36548;DHT22;22551;52.206;4.856;2023-03-20T21:32:27;9.50;99.90
36548;DHT22;22551;52.206;4.856;2023-03-20T21:37:33;9.50;99.90
36548;DHT22;22551;52.206;4.856;2023-03-20T21:42:36;9.50;99.90
36548;DHT22;22551;52.206;4.856;2023-03-20T21:47:38;9.50;99.90
36548;DHT22;22551;52.206;4.856;2023-03-20T21:52:41;9.50;99.90
36548;DHT22;22551;52.206;4.856;2023-03-20T21:57:44;9.50;99.90
36548;DHT22;22551;52.206;4.856;2023-03-20T22:02:46;9.50;99.90
36548;DHT22;22551;52.206;4.856;2023-03-20T22:07:52;9.50;99.90
36548;DHT22;22551;52.206;4.856;2023-03-20T22:12:55;9.50;99.90
36548;DHT22;22551;52.206;4.856;2023-03-20T22:17:57;9.50;99.90
36548;DHT22;22551;52.206;4.856;2023-03-20T22:23:01;9.50;99.90
36548;DHT22;22551;52.206;4.856;2023-03-20T22:28:03;9.50;99.90
36548;DHT22;22551;52.206;4.856;2023-03-20T22:33:05;9.50;99.90
36548;DHT22;22551;52.206;4.856;2023-03-20T22:38:09;9.50;99.90
36548;DHT22;22551;52.206;4.856;2023-03-20T22:43:12;9.40;99.90
36548;DHT22;22551;52.206;4.856;2023-03-20T22:48:17;9.50;99.90
36548;DHT22;22551;52.206;4.856;2023-03-20T22:53:21;9.50;99.90
36548;DHT22;22551;52.206;4.856;2023-03-20T22:58:24;9.50;99.90
36548;DHT22;22551;52.206;4.856;2023-03-20T23:03:26;9.50;99.90
36548;DHT22;22551;52.206;4.856;2023-03-20T23:08:30;9.40;99.90
36548;DHT22;22551;52.206;4.856;2023-03-20T23:13:33;9.40;99.90
36548;DHT22;22551;52.206;4.856;2023-03-20T23:18:35;9.40;99.90
36548;DHT22;22551;52.206;4.856;2023-03-20T23:23:39;9.40;99.90
36548;DHT22;22551;52.206;4.856;2023-03-20T23:28:43;9.40;99.90
36548;DHT22;22551;52.206;4.856;2023-03-20T23:33:49;9.40;99.90
36548;DHT22;22551;52.206;4.856;2023-03-20T23:38:53;9.40;99.90
36548;DHT22;22551;52.206;4.856;2023-03-20T23:43:55;9.40;99.90
36548;DHT22;22551;52.206;4.856;2023-03-20T23:48:58;9.40;99.90
36548;DHT22;22551;52.206;4.856;2023-03-20T23:54:01;9.40;99.90
36548;DHT22;22551;52.206;4.856;2023-03-20T23:59:04;9.40;99.90
